sensor_id;sensor_type;location;lat;lon;timestamp;P1;durP1;ratioP1;P2;durP2;ratioP2
14892;SDS011;7538;53.626;9.906;2022-08-18T00:01:47;5.25;;;4.75;;
14892;SDS011;7538;53.626;9.906;2022-08-18T00:04:15;5.03;;;4.53;;
14892;SDS011;7538;53.626;9.906;2022-08-18T00:06:42;4.80;;;4.50;;
14892;SDS011;7538;53.626;9.906;2022-08-18T00:09:09;5.07;;;4.68;;
14892;SDS011;7538;53.626;9.906;2022-08-18T00:11:39;5.40;;;4.93;;
14892;SDS011;7538;53.626;9.906;2022-08-18T00:14:09;5.32;;;4.45;;
14892;SDS011;7538;53.626;9.906;2022-08-18T00:16:38;5.10;;;4.70;;
14892;SDS011;7538;53.626;9.906;2022-08-18T00:19:05;5.13;;;4.63;;
14892;SDS011;7538;53.626;9.906;2022-08-18T00:21:32;5.30;;;4.90;;
14892;SDS011;7538;53.626;9.906;2022-08-18T00:24:00;4.97;;;4.57;;
14892;SDS011;7538;53.626;9.906;2022-08-18T00:26:27;5.57;;;4.65;;
14892;SDS011;7538;53.626;9.906;2022-08-18T00:28:54;5.50;;;4.65;;
14892;SDS011;7538;53.626;9.906;2022-08-18T00:31:22;5.40;;;4.90;;
14892;SDS011;7538;53.626;9.906;2022-08-18T00:33:51;4.78;;;4.32;;
14892;SDS011;7538;53.626;9.906;2022-08-18T00:36:18;5.22;;;4.72;;
14892;SDS011;7538;53.626;9.906;2022-08-18T00:38:45;4.80;;;4.40;;
14892;SDS011;7538;53.626;9.906;2022-08-18T00:41:12;4.97;;;4.57;;
14892;SDS011;7538;53.626;9.906;2022-08-18T00:43:41;4.57;;;4.18;;
14892;SDS011;7538;53.626;9.906;2022-08-18T00:46:11;5.18;;;4.78;;
14892;SDS011;7538;53.626;9.906;2022-08-18T00:48:39;5.13;;;4.72;;
14892;SDS011;7538;53.626;9.906;2022-08-18T00:51:09;5.22;;;4.72;;
14892;SDS011;7538;53.626;9.906;2022-08-18T00:53:40;6.07;;;5.57;;
14892;SDS011;7538;53.626;9.906;2022-08-18T00:56:12;5.68;;;5.10;;
14892;SDS011;7538;53.626;9.906;2022-08-18T00:58:41;5.30;;;4.90;;
14892;SDS011;7538;53.626;9.906;2022-08-18T01:01:10;6.43;;;5.13;;
14892;SDS011;7538;53.626;9.906;2022-08-18T01:03:38;5.63;;;4.53;;
14892;SDS011;7538;53.626;9.906;2022-08-18T01:06:07;5.22;;;4.82;;
14892;SDS011;7538;53.626;9.906;2022-08-18T01:08:37;5.68;;;5.18;;
14892;SDS011;7538;53.626;9.906;2022-08-18T01:11:05;6.57;;;5.97;;
14892;SDS011;7538;53.626;9.906;2022-08-18T01:13:33;5.45;;;4.95;;
14892;SDS011;7538;53.626;9.906;2022-08-18T01:16:02;7.32;;;6.03;;
14892;SDS011;7538;53.626;9.906;2022-08-18T01:18:44;5.90;;;5.40;;
14892;SDS011;7538;53.626;9.906;2022-08-18T01:21:28;6.70;;;6.10;;
14892;SDS011;7538;53.626;9.906;2022-08-18T01:24:19;6.93;;;6.22;;
14892;SDS011;7538;53.626;9.906;2022-08-18T01:27:10;7.30;;;6.60;;
14892;SDS011;7538;53.626;9.906;2022-08-18T01:29:39;6.93;;;6.32;;
14892;SDS011;7538;53.626;9.906;2022-08-18T01:32:06;8.20;;;6.30;;
14892;SDS011;7538;53.626;9.906;2022-08-18T01:34:33;7.28;;;6.65;;
14892;SDS011;7538;53.626;9.906;2022-08-18T01:37:01;6.47;;;5.97;;
14892;SDS011;7538;53.626;9.906;2022-08-18T01:39:31;7.25;;;6.57;;
14892;SDS011;7538;53.626;9.906;2022-08-18T01:41:58;7.70;;;6.85;;
14892;SDS011;7538;53.626;9.906;2022-08-18T01:44:28;7.07;;;6.38;;
14892;SDS011;7538;53.626;9.906;2022-08-18T01:46:55;8.43;;;7.72;;
14892;SDS011;7538;53.626;9.906;2022-08-18T01:49:22;7.57;;;6.88;;
14892;SDS011;7538;53.626;9.906;2022-08-18T01:51:52;7.65;;;7.05;;
14892;SDS011;7538;53.626;9.906;2022-08-18T01:54:20;7.60;;;6.90;;
14892;SDS011;7538;53.626;9.906;2022-08-18T01:56:49;9.23;;;8.32;;
14892;SDS011;7538;53.626;9.906;2022-08-18T01:59:17;8.63;;;7.82;;
14892;SDS011;7538;53.626;9.906;2022-08-18T02:01:45;8.23;;;7.43;;
14892;SDS011;7538;53.626;9.906;2022-08-18T02:04:13;8.88;;;8.07;;
14892;SDS011;7538;53.626;9.906;2022-08-18T02:06:40;9.80;;;8.93;;
14892;SDS011;7538;53.626;9.906;2022-08-18T02:09:08;8.60;;;7.80;;
14892;SDS011;7538;53.626;9.906;2022-08-18T02:11:35;9.93;;;9.13;;
14892;SDS011;7538;53.626;9.906;2022-08-18T02:14:04;10.35;;;9.15;;
14892;SDS011;7538;53.626;9.906;2022-08-18T02:16:31;11.02;;;9.98;;
14892;SDS011;7538;53.626;9.906;2022-08-18T02:18:59;11.93;;;10.82;;
14892;SDS011;7538;53.626;9.906;2022-08-18T02:21:27;11.48;;;10.30;;
14892;SDS011;7538;53.626;9.906;2022-08-18T02:23:54;13.32;;;11.95;;
14892;SDS011;7538;53.626;9.906;2022-08-18T02:26:22;11.77;;;10.68;;
14892;SDS011;7538;53.626;9.906;2022-08-18T02:28:49;12.10;;;11.00;;
14892;SDS011;7538;53.626;9.906;2022-08-18T02:31:19;10.65;;;9.63;;
14892;SDS011;7538;53.626;9.906;2022-08-18T02:33:47;11.05;;;10.05;;
14892;SDS011;7538;53.626;9.906;2022-08-18T02:36:14;11.93;;;10.82;;
14892;SDS011;7538;53.626;9.906;2022-08-18T02:38:42;11.93;;;10.93;;
14892;SDS011;7538;53.626;9.906;2022-08-18T02:41:10;11.45;;;10.50;;
14892;SDS011;7538;53.626;9.906;2022-08-18T02:43:39;11.70;;;10.70;;
14892;SDS011;7538;53.626;9.906;2022-08-18T02:46:07;12.10;;;11.13;;
14892;SDS011;7538;53.626;9.906;2022-08-18T02:48:36;12.25;;;11.15;;
14892;SDS011;7538;53.626;9.906;2022-08-18T02:51:03;12.45;;;11.35;;
14892;SDS011;7538;53.626;9.906;2022-08-18T02:53:33;12.35;;;11.25;;
14892;SDS011;7538;53.626;9.906;2022-08-18T02:56:03;12.00;;;10.85;;
14892;SDS011;7538;53.626;9.906;2022-08-18T02:58:41;12.23;;;11.13;;
14892;SDS011;7538;53.626;9.906;2022-08-18T03:01:08;12.93;;;11.68;;
14892;SDS011;7538;53.626;9.906;2022-08-18T03:03:37;14.77;;;13.25;;
14892;SDS011;7538;53.626;9.906;2022-08-18T03:06:04;13.68;;;12.40;;
14892;SDS011;7538;53.626;9.906;2022-08-18T03:08:32;14.13;;;12.90;;
14892;SDS011;7538;53.626;9.906;2022-08-18T03:10:59;15.65;;;14.18;;
14892;SDS011;7538;53.626;9.906;2022-08-18T03:13:26;12.80;;;11.60;;
14892;SDS011;7538;53.626;9.906;2022-08-18T03:15:54;14.77;;;13.48;;
14892;SDS011;7538;53.626;9.906;2022-08-18T03:18:21;13.10;;;12.00;;
14892;SDS011;7538;53.626;9.906;2022-08-18T03:20:50;13.52;;;12.35;;
14892;SDS011;7538;53.626;9.906;2022-08-18T03:23:17;12.93;;;11.82;;
14892;SDS011;7538;53.626;9.906;2022-08-18T03:25:44;12.02;;;10.82;;
14892;SDS011;7538;53.626;9.906;2022-08-18T03:28:12;12.90;;;11.68;;
14892;SDS011;7538;53.626;9.906;2022-08-18T03:30:40;13.25;;;12.15;;
14892;SDS011;7538;53.626;9.906;2022-08-18T03:33:07;13.18;;;12.07;;
14892;SDS011;7538;53.626;9.906;2022-08-18T03:35:34;12.27;;;11.27;;
14892;SDS011;7538;53.626;9.906;2022-08-18T03:38:03;12.23;;;11.13;;
14892;SDS011;7538;53.626;9.906;2022-08-18T03:40:30;13.43;;;12.23;;
14892;SDS011;7538;53.626;9.906;2022-08-18T03:42:57;13.63;;;12.07;;
14892;SDS011;7538;53.626;9.906;2022-08-18T03:45:25;13.43;;;12.15;;
14892;SDS011;7538;53.626;9.906;2022-08-18T03:47:55;12.27;;;11.18;;
14892;SDS011;7538;53.626;9.906;2022-08-18T03:50:24;11.98;;;10.95;;
14892;SDS011;7538;53.626;9.906;2022-08-18T03:52:51;12.75;;;11.63;;
14892;SDS011;7538;53.626;9.906;2022-08-18T03:55:21;12.55;;;11.50;;
14892;SDS011;7538;53.626;9.906;2022-08-18T03:57:48;13.15;;;11.95;;
14892;SDS011;7538;53.626;9.906;2022-08-18T04:00:17;13.00;;;12.00;;
14892;SDS011;7538;53.626;9.906;2022-08-18T04:02:44;13.00;;;11.80;;
14892;SDS011;7538;53.626;9.906;2022-08-18T04:05:11;13.32;;;12.13;;
14892;SDS011;7538;53.626;9.906;2022-08-18T04:07:39;12.85;;;11.57;;
14892;SDS011;7538;53.626;9.906;2022-08-18T04:10:07;12.40;;;11.40;;
14892;SDS011;7538;53.626;9.906;2022-08-18T04:12:36;12.90;;;11.80;;
14892;SDS011;7538;53.626;9.906;2022-08-18T04:15:04;13.65;;;12.55;;
14892;SDS011;7538;53.626;9.906;2022-08-18T04:17:31;13.05;;;11.85;;
14892;SDS011;7538;53.626;9.906;2022-08-18T04:19:58;14.10;;;12.82;;
14892;SDS011;7538;53.626;9.906;2022-08-18T04:22:25;14.07;;;12.80;;
14892;SDS011;7538;53.626;9.906;2022-08-18T04:24:52;14.02;;;12.73;;
14892;SDS011;7538;53.626;9.906;2022-08-18T04:27:20;14.07;;;12.88;;
14892;SDS011;7538;53.626;9.906;2022-08-18T04:29:49;13.60;;;12.20;;
14892;SDS011;7538;53.626;9.906;2022-08-18T04:32:16;14.10;;;12.80;;
14892;SDS011;7538;53.626;9.906;2022-08-18T04:34:43;16.30;;;14.85;;
14892;SDS011;7538;53.626;9.906;2022-08-18T04:37:11;14.95;;;13.75;;
14892;SDS011;7538;53.626;9.906;2022-08-18T04:39:39;15.50;;;14.13;;
14892;SDS011;7538;53.626;9.906;2022-08-18T04:42:06;16.83;;;15.02;;
14892;SDS011;7538;53.626;9.906;2022-08-18T04:44:34;14.48;;;13.18;;
14892;SDS011;7538;53.626;9.906;2022-08-18T04:47:03;15.15;;;13.63;;
14892;SDS011;7538;53.626;9.906;2022-08-18T04:49:30;14.13;;;12.93;;
14892;SDS011;7538;53.626;9.906;2022-08-18T04:51:58;13.88;;;12.68;;
14892;SDS011;7538;53.626;9.906;2022-08-18T04:54:42;14.35;;;13.05;;
14892;SDS011;7538;53.626;9.906;2022-08-18T04:57:10;14.88;;;13.55;;
14892;SDS011;7538;53.626;9.906;2022-08-18T04:59:38;15.80;;;14.40;;
14892;SDS011;7538;53.626;9.906;2022-08-18T05:02:08;14.55;;;13.35;;
14892;SDS011;7538;53.626;9.906;2022-08-18T05:04:35;15.18;;;13.80;;
14892;SDS011;7538;53.626;9.906;2022-08-18T05:07:04;13.27;;;12.13;;
14892;SDS011;7538;53.626;9.906;2022-08-18T05:09:32;14.10;;;12.85;;
14892;SDS011;7538;53.626;9.906;2022-08-18T05:12:00;14.85;;;13.32;;
14892;SDS011;7538;53.626;9.906;2022-08-18T05:14:28;13.30;;;12.15;;
14892;SDS011;7538;53.626;9.906;2022-08-18T05:16:56;13.13;;;12.02;;
14892;SDS011;7538;53.626;9.906;2022-08-18T05:19:25;13.52;;;12.40;;
14892;SDS011;7538;53.626;9.906;2022-08-18T05:21:52;14.55;;;13.25;;
14892;SDS011;7538;53.626;9.906;2022-08-18T05:24:21;14.38;;;13.13;;
14892;SDS011;7538;53.626;9.906;2022-08-18T05:26:49;13.88;;;12.77;;
14892;SDS011;7538;53.626;9.906;2022-08-18T05:29:16;13.00;;;11.77;;
14892;SDS011;7538;53.626;9.906;2022-08-18T05:31:45;14.55;;;13.25;;
14892;SDS011;7538;53.626;9.906;2022-08-18T05:34:12;13.57;;;12.38;;
14892;SDS011;7538;53.626;9.906;2022-08-18T05:36:45;12.80;;;11.60;;
14892;SDS011;7538;53.626;9.906;2022-08-18T05:39:24;12.32;;;11.32;;
14892;SDS011;7538;53.626;9.906;2022-08-18T05:41:54;13.32;;;12.18;;
14892;SDS011;7538;53.626;9.906;2022-08-18T05:44:28;14.55;;;13.20;;
14892;SDS011;7538;53.626;9.906;2022-08-18T05:46:58;12.35;;;11.27;;
14892;SDS011;7538;53.626;9.906;2022-08-18T05:49:30;13.45;;;12.35;;
14892;SDS011;7538;53.626;9.906;2022-08-18T05:52:02;14.38;;;13.07;;
14892;SDS011;7538;53.626;9.906;2022-08-18T05:54:35;14.85;;;13.55;;
14892;SDS011;7538;53.626;9.906;2022-08-18T05:57:24;14.32;;;13.15;;
14892;SDS011;7538;53.626;9.906;2022-08-18T05:59:56;17.13;;;15.50;;
14892;SDS011;7538;53.626;9.906;2022-08-18T06:02:26;13.98;;;12.88;;
14892;SDS011;7538;53.626;9.906;2022-08-18T06:04:58;14.48;;;13.27;;
14892;SDS011;7538;53.626;9.906;2022-08-18T06:07:32;13.75;;;12.55;;
14892;SDS011;7538;53.626;9.906;2022-08-18T06:10:03;16.05;;;12.68;;
14892;SDS011;7538;53.626;9.906;2022-08-18T06:12:33;12.60;;;11.57;;
14892;SDS011;7538;53.626;9.906;2022-08-18T06:15:04;11.38;;;10.48;;
14892;SDS011;7538;53.626;9.906;2022-08-18T06:18:04;10.57;;;9.50;;
14892;SDS011;7538;53.626;9.906;2022-08-18T06:20:43;9.80;;;9.00;;
14892;SDS011;7538;53.626;9.906;2022-08-18T06:23:30;9.68;;;8.90;;
14892;SDS011;7538;53.626;9.906;2022-08-18T06:26:08;9.20;;;8.38;;
14892;SDS011;7538;53.626;9.906;2022-08-18T06:28:44;9.48;;;8.70;;
14892;SDS011;7538;53.626;9.906;2022-08-18T06:31:25;9.60;;;8.45;;
14892;SDS011;7538;53.626;9.906;2022-08-18T06:34:00;9.30;;;8.45;;
14892;SDS011;7538;53.626;9.906;2022-08-18T06:36:36;9.10;;;8.30;;
14892;SDS011;7538;53.626;9.906;2022-08-18T06:39:15;8.93;;;8.23;;
14892;SDS011;7538;53.626;9.906;2022-08-18T06:41:48;7.93;;;7.32;;
14892;SDS011;7538;53.626;9.906;2022-08-18T06:44:18;9.15;;;7.90;;
14892;SDS011;7538;53.626;9.906;2022-08-18T06:46:49;8.13;;;6.90;;
14892;SDS011;7538;53.626;9.906;2022-08-18T06:49:22;9.70;;;8.90;;
14892;SDS011;7538;53.626;9.906;2022-08-18T06:52:16;10.55;;;9.70;;
14892;SDS011;7538;53.626;9.906;2022-08-18T06:54:50;10.52;;;9.70;;
14892;SDS011;7538;53.626;9.906;2022-08-18T06:57:22;12.93;;;11.73;;
14892;SDS011;7538;53.626;9.906;2022-08-18T06:59:56;15.55;;;14.23;;
14892;SDS011;7538;53.626;9.906;2022-08-18T07:02:28;22.05;;;20.13;;
14892;SDS011;7538;53.626;9.906;2022-08-18T07:05:04;26.13;;;23.73;;
14892;SDS011;7538;53.626;9.906;2022-08-18T07:07:33;29.38;;;26.48;;
14892;SDS011;7538;53.626;9.906;2022-08-18T07:10:04;35.75;;;32.22;;
14892;SDS011;7538;53.626;9.906;2022-08-18T07:12:56;35.30;;;31.75;;
14892;SDS011;7538;53.626;9.906;2022-08-18T07:15:32;34.15;;;30.67;;
14892;SDS011;7538;53.626;9.906;2022-08-18T07:18:01;33.20;;;29.58;;
14892;SDS011;7538;53.626;9.906;2022-08-18T07:20:31;35.95;;;32.03;;
14892;SDS011;7538;53.626;9.906;2022-08-18T07:23:07;37.15;;;31.45;;
14892;SDS011;7538;53.626;9.906;2022-08-18T07:25:38;34.95;;;30.55;;
14892;SDS011;7538;53.626;9.906;2022-08-18T07:28:09;38.70;;;30.05;;
14892;SDS011;7538;53.626;9.906;2022-08-18T07:30:55;38.60;;;31.10;;
14892;SDS011;7538;53.626;9.906;2022-08-18T07:33:52;36.05;;;31.20;;
14892;SDS011;7538;53.626;9.906;2022-08-18T07:36:22;33.65;;;27.02;;
14892;SDS011;7538;53.626;9.906;2022-08-18T07:38:55;36.95;;;29.67;;
14892;SDS011;7538;53.626;9.906;2022-08-18T07:41:31;36.40;;;30.55;;
14892;SDS011;7538;53.626;9.906;2022-08-18T07:44:16;36.00;;;30.77;;
14892;SDS011;7538;53.626;9.906;2022-08-18T07:46:49;34.78;;;27.73;;
14892;SDS011;7538;53.626;9.906;2022-08-18T07:49:21;37.00;;;32.13;;
14892;SDS011;7538;53.626;9.906;2022-08-18T07:51:49;34.50;;;29.13;;
14892;SDS011;7538;53.626;9.906;2022-08-18T07:54:25;36.50;;;31.00;;
14892;SDS011;7538;53.626;9.906;2022-08-18T07:57:07;30.73;;;27.42;;
14892;SDS011;7538;53.626;9.906;2022-08-18T07:59:41;28.65;;;25.25;;
14892;SDS011;7538;53.626;9.906;2022-08-18T08:05:07;26.55;;;23.63;;
14892;SDS011;7538;53.626;9.906;2022-08-18T08:07:44;27.40;;;23.52;;
14892;SDS011;7538;53.626;9.906;2022-08-18T08:10:22;27.02;;;24.13;;
14892;SDS011;7538;53.626;9.906;2022-08-18T08:13:00;25.00;;;22.33;;
14892;SDS011;7538;53.626;9.906;2022-08-18T08:15:34;30.85;;;26.13;;
14892;SDS011;7538;53.626;9.906;2022-08-18T08:18:10;29.42;;;23.75;;
14892;SDS011;7538;53.626;9.906;2022-08-18T08:20:43;31.25;;;26.23;;
14892;SDS011;7538;53.626;9.906;2022-08-18T08:23:17;29.95;;;24.10;;
14892;SDS011;7538;53.626;9.906;2022-08-18T08:28:51;29.52;;;26.35;;
14892;SDS011;7538;53.626;9.906;2022-08-18T08:31:28;31.15;;;25.90;;
14892;SDS011;7538;53.626;9.906;2022-08-18T08:34:04;26.35;;;23.13;;
14892;SDS011;7538;53.626;9.906;2022-08-18T08:36:37;32.60;;;27.05;;
14892;SDS011;7538;53.626;9.906;2022-08-18T08:39:08;30.13;;;26.25;;
14892;SDS011;7538;53.626;9.906;2022-08-18T08:41:39;32.83;;;27.08;;
14892;SDS011;7538;53.626;9.906;2022-08-18T08:44:12;31.52;;;24.48;;
14892;SDS011;7538;53.626;9.906;2022-08-18T08:46:44;28.63;;;25.20;;
14892;SDS011;7538;53.626;9.906;2022-08-18T08:49:18;26.13;;;23.27;;
14892;SDS011;7538;53.626;9.906;2022-08-18T08:51:52;31.10;;;27.55;;
14892;SDS011;7538;53.626;9.906;2022-08-18T08:54:22;35.58;;;30.85;;
14892;SDS011;7538;53.626;9.906;2022-08-18T08:56:54;31.00;;;27.45;;
14892;SDS011;7538;53.626;9.906;2022-08-18T08:59:26;29.48;;;26.45;;
14892;SDS011;7538;53.626;9.906;2022-08-18T09:01:55;29.20;;;26.10;;
14892;SDS011;7538;53.626;9.906;2022-08-18T09:04:45;27.33;;;24.60;;
14892;SDS011;7538;53.626;9.906;2022-08-18T09:07:22;24.77;;;22.20;;
14892;SDS011;7538;53.626;9.906;2022-08-18T09:10:06;29.92;;;26.83;;
14892;SDS011;7538;53.626;9.906;2022-08-18T09:12:50;30.42;;;27.42;;
14892;SDS011;7538;53.626;9.906;2022-08-18T09:15:29;26.27;;;23.42;;
14892;SDS011;7538;53.626;9.906;2022-08-18T09:18:17;25.58;;;22.90;;
14892;SDS011;7538;53.626;9.906;2022-08-18T09:21:16;27.80;;;24.13;;
14892;SDS011;7538;53.626;9.906;2022-08-18T09:23:50;25.67;;;23.08;;
14892;SDS011;7538;53.626;9.906;2022-08-18T09:26:37;28.45;;;24.80;;
14892;SDS011;7538;53.626;9.906;2022-08-18T09:29:18;26.13;;;23.10;;
14892;SDS011;7538;53.626;9.906;2022-08-18T09:34:53;27.15;;;24.05;;
14892;SDS011;7538;53.626;9.906;2022-08-18T09:37:31;25.10;;;22.42;;
14892;SDS011;7538;53.626;9.906;2022-08-18T09:40:10;27.02;;;24.02;;
14892;SDS011;7538;53.626;9.906;2022-08-18T09:43:05;25.27;;;22.67;;
14892;SDS011;7538;53.626;9.906;2022-08-18T09:45:50;23.75;;;21.27;;
14892;SDS011;7538;53.626;9.906;2022-08-18T09:48:21;19.17;;;17.23;;
14892;SDS011;7538;53.626;9.906;2022-08-18T09:50:56;21.25;;;19.17;;
14892;SDS011;7538;53.626;9.906;2022-08-18T10:05:56;26.63;;;23.83;;
14892;SDS011;7538;53.626;9.906;2022-08-18T10:11:25;20.92;;;18.42;;
14892;SDS011;7538;53.626;9.906;2022-08-18T10:14:11;25.55;;;22.92;;
14892;SDS011;7538;53.626;9.906;2022-08-18T10:16:53;24.92;;;22.42;;
14892;SDS011;7538;53.626;9.906;2022-08-18T10:19:29;22.52;;;20.33;;
14892;SDS011;7538;53.626;9.906;2022-08-18T10:22:06;26.23;;;23.58;;
14892;SDS011;7538;53.626;9.906;2022-08-18T10:24:36;25.27;;;22.67;;
14892;SDS011;7538;53.626;9.906;2022-08-18T10:27:08;23.55;;;21.17;;
14892;SDS011;7538;53.626;9.906;2022-08-18T10:29:42;23.25;;;21.00;;
14892;SDS011;7538;53.626;9.906;2022-08-18T10:32:16;21.95;;;19.77;;
14892;SDS011;7538;53.626;9.906;2022-08-18T10:38:23;23.15;;;20.73;;
14892;SDS011;7538;53.626;9.906;2022-08-18T10:40:53;23.67;;;21.38;;
14892;SDS011;7538;53.626;9.906;2022-08-18T10:43:27;23.92;;;21.42;;
14892;SDS011;7538;53.626;9.906;2022-08-18T10:46:02;19.33;;;17.52;;
14892;SDS011;7538;53.626;9.906;2022-08-18T10:48:30;23.00;;;20.65;;
14892;SDS011;7538;53.626;9.906;2022-08-18T10:51:01;22.75;;;20.55;;
14892;SDS011;7538;53.626;9.906;2022-08-18T10:53:36;24.88;;;22.50;;
14892;SDS011;7538;53.626;9.906;2022-08-18T10:56:11;23.50;;;21.25;;
14892;SDS011;7538;53.626;9.906;2022-08-18T10:59:02;23.00;;;19.20;;
14892;SDS011;7538;53.626;9.906;2022-08-18T11:01:43;21.10;;;18.98;;
14892;SDS011;7538;53.626;9.906;2022-08-18T11:04:23;24.00;;;21.60;;
14892;SDS011;7538;53.626;9.906;2022-08-18T11:06:56;24.85;;;22.33;;
14892;SDS011;7538;53.626;9.906;2022-08-18T11:09:29;22.08;;;19.60;;
14892;SDS011;7538;53.626;9.906;2022-08-18T11:11:58;23.63;;;21.38;;
14892;SDS011;7538;53.626;9.906;2022-08-18T11:14:38;26.25;;;23.65;;
14892;SDS011;7538;53.626;9.906;2022-08-18T11:17:25;23.67;;;21.25;;
14892;SDS011;7538;53.626;9.906;2022-08-18T11:20:00;25.10;;;21.75;;
14892;SDS011;7538;53.626;9.906;2022-08-18T11:22:33;23.35;;;21.05;;
14892;SDS011;7538;53.626;9.906;2022-08-18T11:25:04;24.80;;;22.40;;
14892;SDS011;7538;53.626;9.906;2022-08-18T11:27:47;28.83;;;25.88;;
14892;SDS011;7538;53.626;9.906;2022-08-18T11:30:14;19.65;;;17.73;;
14892;SDS011;7538;53.626;9.906;2022-08-18T11:32:42;20.80;;;18.90;;
14892;SDS011;7538;53.626;9.906;2022-08-18T11:35:11;17.58;;;15.80;;
14892;SDS011;7538;53.626;9.906;2022-08-18T11:37:42;23.27;;;21.08;;
14892;SDS011;7538;53.626;9.906;2022-08-18T11:40:26;22.23;;;20.00;;
14892;SDS011;7538;53.626;9.906;2022-08-18T11:43:00;19.25;;;17.48;;
14892;SDS011;7538;53.626;9.906;2022-08-18T11:45:31;20.20;;;17.95;;
14892;SDS011;7538;53.626;9.906;2022-08-18T11:48:08;16.88;;;15.43;;
14892;SDS011;7538;53.626;9.906;2022-08-18T11:50:45;19.52;;;17.75;;
14892;SDS011;7538;53.626;9.906;2022-08-18T11:53:15;17.77;;;16.13;;
14892;SDS011;7538;53.626;9.906;2022-08-18T11:56:03;15.15;;;13.68;;
14892;SDS011;7538;53.626;9.906;2022-08-18T11:58:49;15.75;;;14.35;;
14892;SDS011;7538;53.626;9.906;2022-08-18T12:01:32;14.95;;;13.73;;
14892;SDS011;7538;53.626;9.906;2022-08-18T12:04:08;13.20;;;11.90;;
14892;SDS011;7538;53.626;9.906;2022-08-18T12:06:48;34.42;;;30.98;;
14892;SDS011;7538;53.626;9.906;2022-08-18T12:09:25;33.75;;;30.25;;
14892;SDS011;7538;53.626;9.906;2022-08-18T12:12:00;14.10;;;12.88;;
14892;SDS011;7538;53.626;9.906;2022-08-18T12:14:30;14.27;;;12.98;;
14892;SDS011;7538;53.626;9.906;2022-08-18T12:17:00;16.17;;;14.77;;
14892;SDS011;7538;53.626;9.906;2022-08-18T12:19:29;15.32;;;13.93;;
14892;SDS011;7538;53.626;9.906;2022-08-18T12:21:57;13.80;;;12.60;;
14892;SDS011;7538;53.626;9.906;2022-08-18T12:24:26;15.20;;;13.80;;
14892;SDS011;7538;53.626;9.906;2022-08-18T12:26:54;14.00;;;12.65;;
14892;SDS011;7538;53.626;9.906;2022-08-18T12:29:24;13.38;;;12.18;;
14892;SDS011;7538;53.626;9.906;2022-08-18T12:31:52;13.30;;;12.13;;
14892;SDS011;7538;53.626;9.906;2022-08-18T12:34:21;11.52;;;10.43;;
14892;SDS011;7538;53.626;9.906;2022-08-18T12:36:51;10.75;;;9.80;;
14892;SDS011;7538;53.626;9.906;2022-08-18T12:39:20;12.43;;;11.18;;
14892;SDS011;7538;53.626;9.906;2022-08-18T12:41:47;12.07;;;11.10;;
14892;SDS011;7538;53.626;9.906;2022-08-18T12:44:14;13.93;;;12.63;;
14892;SDS011;7538;53.626;9.906;2022-08-18T12:46:43;11.70;;;10.60;;
14892;SDS011;7538;53.626;9.906;2022-08-18T12:49:12;12.88;;;11.52;;
14892;SDS011;7538;53.626;9.906;2022-08-18T12:51:44;10.93;;;10.05;;
14892;SDS011;7538;53.626;9.906;2022-08-18T12:54:13;10.80;;;9.68;;
14892;SDS011;7538;53.626;9.906;2022-08-18T12:56:40;10.90;;;9.90;;
14892;SDS011;7538;53.626;9.906;2022-08-18T12:59:08;11.00;;;9.90;;
14892;SDS011;7538;53.626;9.906;2022-08-18T13:01:38;11.10;;;10.07;;
14892;SDS011;7538;53.626;9.906;2022-08-18T13:04:07;11.75;;;10.68;;
14892;SDS011;7538;53.626;9.906;2022-08-18T13:06:37;13.60;;;10.40;;
14892;SDS011;7538;53.626;9.906;2022-08-18T13:09:06;9.95;;;9.15;;
14892;SDS011;7538;53.626;9.906;2022-08-18T13:11:33;10.43;;;9.48;;
14892;SDS011;7538;53.626;9.906;2022-08-18T13:14:00;11.13;;;10.13;;
14892;SDS011;7538;53.626;9.906;2022-08-18T13:16:27;12.43;;;11.43;;
14892;SDS011;7538;53.626;9.906;2022-08-18T13:18:59;11.35;;;10.20;;
14892;SDS011;7538;53.626;9.906;2022-08-18T13:21:28;11.95;;;11.02;;
14892;SDS011;7538;53.626;9.906;2022-08-18T13:23:55;12.07;;;11.05;;
14892;SDS011;7538;53.626;9.906;2022-08-18T13:26:23;11.73;;;10.63;;
14892;SDS011;7538;53.626;9.906;2022-08-18T13:28:52;12.30;;;11.30;;
14892;SDS011;7538;53.626;9.906;2022-08-18T13:31:19;11.63;;;10.68;;
14892;SDS011;7538;53.626;9.906;2022-08-18T13:33:46;11.98;;;10.80;;
14892;SDS011;7538;53.626;9.906;2022-08-18T13:36:14;13.48;;;12.15;;
14892;SDS011;7538;53.626;9.906;2022-08-18T13:38:43;12.98;;;11.88;;
14892;SDS011;7538;53.626;9.906;2022-08-18T13:41:10;12.70;;;11.40;;
14892;SDS011;7538;53.626;9.906;2022-08-18T13:43:38;12.30;;;11.13;;
14892;SDS011;7538;53.626;9.906;2022-08-18T13:46:08;11.23;;;10.20;;
14892;SDS011;7538;53.626;9.906;2022-08-18T13:48:36;11.07;;;10.13;;
14892;SDS011;7538;53.626;9.906;2022-08-18T13:51:03;11.50;;;10.52;;
14892;SDS011;7538;53.626;9.906;2022-08-18T13:53:32;13.98;;;12.80;;
14892;SDS011;7538;53.626;9.906;2022-08-18T13:56:02;14.82;;;13.50;;
14892;SDS011;7538;53.626;9.906;2022-08-18T13:58:29;12.80;;;11.60;;
14892;SDS011;7538;53.626;9.906;2022-08-18T14:00:57;13.18;;;12.05;;
14892;SDS011;7538;53.626;9.906;2022-08-18T14:03:26;15.48;;;14.07;;
14892;SDS011;7538;53.626;9.906;2022-08-18T14:05:53;15.43;;;14.07;;
14892;SDS011;7538;53.626;9.906;2022-08-18T14:08:22;13.45;;;12.20;;
14892;SDS011;7538;53.626;9.906;2022-08-18T14:10:51;18.00;;;16.42;;
14892;SDS011;7538;53.626;9.906;2022-08-18T14:13:22;17.17;;;15.45;;
14892;SDS011;7538;53.626;9.906;2022-08-18T14:15:49;14.80;;;13.55;;
14892;SDS011;7538;53.626;9.906;2022-08-18T14:18:18;16.33;;;14.82;;
14892;SDS011;7538;53.626;9.906;2022-08-18T14:20:45;15.50;;;14.20;;
14892;SDS011;7538;53.626;9.906;2022-08-18T14:23:30;15.50;;;14.20;;
14892;SDS011;7538;53.626;9.906;2022-08-18T14:26:25;16.02;;;14.70;;
14892;SDS011;7538;53.626;9.906;2022-08-18T14:29:11;15.93;;;14.43;;
14892;SDS011;7538;53.626;9.906;2022-08-18T14:31:38;14.45;;;13.15;;
14892;SDS011;7538;53.626;9.906;2022-08-18T14:34:05;14.27;;;12.95;;
14892;SDS011;7538;53.626;9.906;2022-08-18T14:36:32;16.15;;;14.65;;
14892;SDS011;7538;53.626;9.906;2022-08-18T14:39:00;15.02;;;13.55;;
14892;SDS011;7538;53.626;9.906;2022-08-18T14:41:27;15.40;;;14.00;;
14892;SDS011;7538;53.626;9.906;2022-08-18T14:43:55;18.05;;;16.55;;
14892;SDS011;7538;53.626;9.906;2022-08-18T14:46:24;18.20;;;16.60;;
14892;SDS011;7538;53.626;9.906;2022-08-18T14:48:51;16.30;;;14.95;;
14892;SDS011;7538;53.626;9.906;2022-08-18T14:51:18;17.48;;;16.02;;
14892;SDS011;7538;53.626;9.906;2022-08-18T14:53:46;14.95;;;13.57;;
14892;SDS011;7538;53.626;9.906;2022-08-18T14:56:13;14.70;;;13.25;;
14892;SDS011;7538;53.626;9.906;2022-08-18T14:58:40;15.25;;;13.95;;
14892;SDS011;7538;53.626;9.906;2022-08-18T15:01:07;13.93;;;12.70;;
14892;SDS011;7538;53.626;9.906;2022-08-18T15:03:39;12.77;;;11.57;;
14892;SDS011;7538;53.626;9.906;2022-08-18T15:06:06;14.82;;;13.43;;
14892;SDS011;7538;53.626;9.906;2022-08-18T15:08:33;12.77;;;11.57;;
14892;SDS011;7538;53.626;9.906;2022-08-18T15:11:01;13.40;;;12.30;;
14892;SDS011;7538;53.626;9.906;2022-08-18T15:13:30;15.63;;;14.20;;
14892;SDS011;7538;53.626;9.906;2022-08-18T15:15:58;13.45;;;12.25;;
14892;SDS011;7538;53.626;9.906;2022-08-18T15:18:26;12.18;;;11.10;;
14892;SDS011;7538;53.626;9.906;2022-08-18T15:20:54;13.52;;;12.23;;
14892;SDS011;7538;53.626;9.906;2022-08-18T15:23:39;13.30;;;12.13;;
14892;SDS011;7538;53.626;9.906;2022-08-18T15:26:24;13.55;;;12.35;;
14892;SDS011;7538;53.626;9.906;2022-08-18T15:28:51;15.38;;;13.77;;
14892;SDS011;7538;53.626;9.906;2022-08-18T15:31:18;12.77;;;11.70;;
14892;SDS011;7538;53.626;9.906;2022-08-18T15:33:46;13.85;;;12.55;;
14892;SDS011;7538;53.626;9.906;2022-08-18T15:36:14;12.32;;;11.07;;